Time;durP1;ratioP1;P1;durP2;ratioP2;P2;SDS_P1;SDS_P2;PMS_P1;PMS_P2;Temp;Humidity;BMP_temperature;BMP_pressure;BME280_temperature;BME280_humidity;BME280_pressure;Samples;Min_cycle;Max_cycle;Signal;HPM_P1;HPM_P2
2022/01/06 00:01:49;;;;;;;11.95;5.75;;;;;;;;;;6264934;28;20186;-61
2022/01/06 00:04:50;;;;;;;15.25;5.15;;;;;;;;;;6266454;28;20053;-61
2022/01/06 00:07:51;;;;;;;16.20;5.35;;;;;;;;;;6265435;28;20065;-61
2022/01/06 00:10:52;;;;;;;13.73;5.75;;;;;;;;;;6266910;28;20057;-60
2022/01/06 00:14:05;;;;;;;15.98;5.85;;;;;;;;;;6263258;28;20092;-60
2022/01/06 00:23:42;;;;;;;15.60;4.90;;;;;;;;;;6270538;28;20086;-59
2022/01/06 00:26:43;;;;;;;14.90;4.93;;;;;;;;;;6266811;28;20647;-57
2022/01/06 00:29:44;;;;;;;13.32;4.78;;;;;;;;;;6262681;28;20257;-61
2022/01/06 00:32:45;;;;;;;11.32;5.45;;;;;;;;;;6266281;28;20578;-60
2022/01/06 00:35:47;;;;;;;13.98;4.65;;;;;;;;;;6262930;28;20048;-61
2022/01/06 00:38:48;;;;;;;;;;;;;;;;;;6263878;28;20143;-60
2022/01/06 00:41:48;;;;;;;11.68;4.40;;;;;;;;;;6266755;28;20452;-59
2022/01/06 00:44:49;;;;;;;12.57;4.80;;;;;;;;;;6267731;28;20151;-59
2022/01/06 00:47:50;;;;;;;13.75;4.68;;;;;;;;;;6270700;28;20052;-59
2022/01/06 00:50:50;;;;;;;12.43;5.10;;;;;;;;;;6265168;28;20338;-59
2022/01/06 00:53:51;;;;;;;13.38;4.63;;;;;;;;;;6265956;28;20140;-60
2022/01/06 00:56:52;;;;;;;14.43;4.65;;;;;;;;;;6270179;28;20131;-60
2022/01/06 00:59:52;;;;;;;12.35;5.18;;;;;;;;;;6265420;28;20470;-59
2022/01/06 01:02:53;;;;;;;10.68;4.60;;;;;;;;;;6260770;28;20087;-59
2022/01/06 01:05:55;;;;;;;12.60;4.90;;;;;;;;;;6270167;28;20075;-60
2022/01/06 01:08:57;;;;;;;11.35;4.25;;;;;;;;;;6264386;28;20765;-59
2022/01/06 01:12:03;;;;;;;13.27;4.85;;;;;;;;;;6266924;28;20040;-59
2022/01/06 01:15:07;;;;;;;13.75;4.75;;;;;;;;;;6271293;28;20147;-59
2022/01/06 01:18:10;;;;;;;13.10;4.32;;;;;;;;;;6270995;28;20144;-59
2022/01/06 01:21:10;;;;;;;12.55;4.47;;;;;;;;;;6269507;28;20667;-61
2022/01/06 01:24:11;;;;;;;9.70;4.63;;;;;;;;;;6285197;28;20496;-60
2022/01/06 01:27:14;;;;;;;11.02;4.25;;;;;;;;;;6289303;28;20102;-59
2022/01/06 01:30:15;;;;;;;12.20;4.20;;;;;;;;;;6284081;28;20389;-60
2022/01/06 01:33:17;;;;;;;14.13;4.45;;;;;;;;;;6288429;28;20045;-60
2022/01/06 01:36:18;;;;;;;13.55;4.57;;;;;;;;;;6271347;28;20041;-60
2022/01/06 01:39:19;;;;;;;12.53;4.67;;;;;;;;;;6276394;28;20044;-58
2022/01/06 01:42:19;;;;;;;11.65;4.97;;;;;;;;;;6293582;28;20083;-60
2022/01/06 01:45:27;;;;;;;12.25;4.47;;;;;;;;;;6294313;28;20049;-58
2022/01/06 01:48:33;;;;;;;15.38;5.72;;;;;;;;;;6294691;28;20044;-58
2022/01/06 01:51:34;;;;;;;11.43;4.13;;;;;;;;;;6291249;28;20060;-58
2022/01/06 01:54:34;;;;;;;14.43;4.35;;;;;;;;;;6295453;28;20500;-60
2022/01/06 01:57:36;;;;;;;11.25;4.45;;;;;;;;;;6294290;28;20052;-60
2022/01/06 02:00:37;;;;;;;8.75;4.43;;;;;;;;;;6293666;28;20044;-60
2022/01/06 02:03:38;;;;;;;11.90;4.90;;;;;;;;;;6289559;28;20044;-62
2022/01/06 02:06:38;;;;;;;10.43;5.00;;;;;;;;;;6282423;28;20040;-61
2022/01/06 02:09:39;;;;;;;11.43;4.65;;;;;;;;;;6286118;28;20737;-60
2022/01/06 02:12:41;;;;;;;10.75;4.65;;;;;;;;;;6282076;28;20040;-59
2022/01/06 02:15:43;;;;;;;13.30;4.63;;;;;;;;;;6282029;28;20856;-61
2022/01/06 02:18:43;;;;;;;10.40;4.35;;;;;;;;;;6279772;28;20043;-59
2022/01/06 02:21:44;;;;;;;11.90;4.93;;;;;;;;;;6281030;28;20041;-59
2022/01/06 02:24:45;;;;;;;14.07;4.55;;;;;;;;;;6280014;28;20083;-60
2022/01/06 02:27:47;;;;;;;14.80;5.00;;;;;;;;;;6275488;28;20483;-60
2022/01/06 02:30:54;;;;;;;14.18;4.70;;;;;;;;;;6280121;28;20048;-61
2022/01/06 02:33:57;;;;;;;12.10;5.05;;;;;;;;;;6279536;28;20098;-61
2022/01/06 02:36:57;;;;;;;11.80;4.88;;;;;;;;;;6282912;28;20056;-60
2022/01/06 02:39:59;;;;;;;11.63;4.05;;;;;;;;;;6281987;28;20534;-60
2022/01/06 02:43:00;;;;;;;11.75;4.45;;;;;;;;;;6281667;28;20052;-59
2022/01/06 02:46:00;;;;;;;14.57;4.05;;;;;;;;;;6281358;28;20069;-60
2022/01/06 02:49:01;;;;;;;10.88;4.10;;;;;;;;;;6285673;28;20045;-60
2022/01/06 02:52:02;;;;;;;9.27;4.20;;;;;;;;;;6279972;28;20106;-60
2022/01/06 02:55:05;;;;;;;10.73;4.18;;;;;;;;;;6282493;28;20045;-60
2022/01/06 02:58:06;;;;;;;10.77;3.97;;;;;;;;;;6279803;28;20053;-58
2022/01/06 03:01:07;;;;;;;13.80;3.90;;;;;;;;;;6281196;28;20132;-61
2022/01/06 03:04:09;;;;;;;8.93;3.30;;;;;;;;;;6279948;28;20044;-61
2022/01/06 03:07:09;;;;;;;9.03;3.93;;;;;;;;;;6279322;28;20145;-61
2022/01/06 03:10:13;;;;;;;9.70;3.85;;;;;;;;;;6281779;28;20301;-61
2022/01/06 03:13:14;;;;;;;8.82;3.72;;;;;;;;;;6281730;28;20037;-59
2022/01/06 03:16:14;;;;;;;10.27;3.60;;;;;;;;;;6279320;28;20434;-61
2022/01/06 03:19:15;;;;;;;13.73;3.97;;;;;;;;;;6281238;28;20135;-60
2022/01/06 03:22:16;;;;;;;10.20;3.78;;;;;;;;;;6278823;28;20036;-61
2022/01/06 03:25:17;;;;;;;9.00;3.40;;;;;;;;;;6277707;28;20712;-60
2022/01/06 03:28:18;;;;;;;11.15;3.50;;;;;;;;;;6275202;28;20068;-61
2022/01/06 03:31:18;;;;;;;10.10;3.22;;;;;;;;;;6278330;28;20044;-60
2022/01/06 03:34:19;;;;;;;9.73;3.47;;;;;;;;;;6284747;28;20511;-58
2022/01/06 03:37:20;;;;;;;10.55;3.50;;;;;;;;;;6281241;28;20040;-59
2022/01/06 03:40:21;;;;;;;11.13;3.30;;;;;;;;;;6278554;28;20044;-58
2022/01/06 03:43:22;;;;;;;8.07;3.58;;;;;;;;;;6278647;28;20057;-58
2022/01/06 03:46:23;;;;;;;8.38;3.88;;;;;;;;;;6279569;28;20048;-59
2022/01/06 03:49:23;;;;;;;9.98;3.40;;;;;;;;;;6281203;28;20040;-59
2022/01/06 03:52:24;;;;;;;6.05;3.33;;;;;;;;;;6280883;28;20918;-61
2022/01/06 03:55:25;;;;;;;10.10;3.92;;;;;;;;;;6279044;28;20131;-59
2022/01/06 03:58:25;;;;;;;10.68;3.60;;;;;;;;;;6281502;28;20055;-60
2022/01/06 04:01:26;;;;;;;9.30;3.70;;;;;;;;;;6271338;28;20044;-60
2022/01/06 04:04:27;;;;;;;8.38;3.90;;;;;;;;;;6284883;28;20524;-58
2022/01/06 04:07:28;;;;;;;6.90;3.17;;;;;;;;;;6280666;28;20045;-59
2022/01/06 04:10:29;;;;;;;8.65;3.83;;;;;;;;;;6277294;28;20056;-59
2022/01/06 04:13:29;;;;;;;13.00;4.00;;;;;;;;;;6280875;28;20135;-60
2022/01/06 04:16:34;;;;;;;8.45;3.42;;;;;;;;;;6278444;28;20086;-58
2022/01/06 04:19:35;;;;;;;6.82;3.70;;;;;;;;;;6278438;28;20438;-60
2022/01/06 04:22:37;;;;;;;10.33;4.33;;;;;;;;;;6279393;28;20129;-60
2022/01/06 04:25:37;;;;;;;8.20;3.60;;;;;;;;;;6274858;28;20053;-58
2022/01/06 04:28:38;;;;;;;7.53;3.50;;;;;;;;;;6281012;28;20506;-57
2022/01/06 04:31:39;;;;;;;10.55;3.50;;;;;;;;;;6282077;28;20049;-58
2022/01/06 04:34:39;;;;;;;8.80;3.70;;;;;;;;;;6284920;28;20059;-57
2022/01/06 04:37:40;;;;;;;7.65;3.58;;;;;;;;;;6279859;28;20093;-58
2022/01/06 04:40:41;;;;;;;7.60;3.28;;;;;;;;;;6274745;28;20044;-57
2022/01/06 04:43:41;;;;;;;8.60;3.47;;;;;;;;;;6290517;28;20144;-59
2022/01/06 04:46:42;;;;;;;8.45;3.15;;;;;;;;;;6285120;28;20056;-60
2022/01/06 04:49:43;;;;;;;7.53;3.28;;;;;;;;;;6284832;28;20056;-59
2022/01/06 04:52:44;;;;;;;8.70;3.40;;;;;;;;;;6290855;28;20131;-58
2022/01/06 04:55:44;;;;;;;10.48;3.65;;;;;;;;;;6287700;28;20040;-59
2022/01/06 04:58:45;;;;;;;9.07;3.38;;;;;;;;;;6287528;28;20047;-60
2022/01/06 05:01:46;;;;;;;8.30;3.58;;;;;;;;;;6276993;28;20404;-59
2022/01/06 05:04:46;;;;;;;11.32;3.63;;;;;;;;;;6277603;28;20482;-59
2022/01/06 05:07:47;;;;;;;7.78;3.25;;;;;;;;;;6281560;28;20048;-60
2022/01/06 05:10:48;;;;;;;9.05;3.55;;;;;;;;;;6287470;28;20048;-59
2022/01/06 05:13:49;;;;;;;8.77;3.50;;;;;;;;;;6290351;28;20045;-59
2022/01/06 05:16:50;;;;;;;10.40;3.20;;;;;;;;;;6279057;28;20079;-59
2022/01/06 05:19:50;;;;;;;11.15;3.63;;;;;;;;;;6268212;28;20045;-60
2022/01/06 05:22:55;;;;;;;10.77;4.05;;;;;;;;;;6277685;28;20064;-60
2022/01/06 05:25:56;;;;;;;8.15;3.72;;;;;;;;;;6284035;28;20044;-59
2022/01/06 05:28:57;;;;;;;8.65;3.65;;;;;;;;;;6279079;28;20125;-60
2022/01/06 05:31:58;;;;;;;8.85;3.45;;;;;;;;;;6280258;28;20048;-59
2022/01/06 05:34:58;;;;;;;8.57;3.60;;;;;;;;;;6281414;28;20710;-60
2022/01/06 05:37:59;;;;;;;6.75;3.40;;;;;;;;;;6274426;28;20076;-61
2022/01/06 05:41:00;;;;;;;9.05;3.55;;;;;;;;;;6285750;28;20502;-60
2022/01/06 05:44:00;;;;;;;8.95;4.10;;;;;;;;;;6285055;28;20059;-61
2022/01/06 05:47:01;;;;;;;10.27;3.28;;;;;;;;;;6279655;28;20080;-60
2022/01/06 05:50:04;;;;;;;9.68;3.80;;;;;;;;;;6284646;28;20455;-59
2022/01/06 05:53:05;;;;;;;12.25;3.95;;;;;;;;;;6286630;28;20403;-61
2022/01/06 05:56:05;;;;;;;12.27;3.50;;;;;;;;;;6284483;28;20060;-60
2022/01/06 05:59:06;;;;;;;9.88;3.45;;;;;;;;;;6281203;28;20510;-61
2022/01/06 06:02:07;;;;;;;8.70;3.45;;;;;;;;;;6279629;28;20045;-61
2022/01/06 06:05:08;;;;;;;9.93;4.03;;;;;;;;;;6284718;28;20056;-60
2022/01/06 06:08:09;;;;;;;8.80;3.85;;;;;;;;;;6282903;28;20059;-60
2022/01/06 06:11:10;;;;;;;9.20;4.20;;;;;;;;;;6280985;28;20048;-61
2022/01/06 06:14:10;;;;;;;9.07;4.35;;;;;;;;;;6280517;28;20061;-60
2022/01/06 06:17:11;;;;;;;10.00;4.03;;;;;;;;;;6285690;28;20503;-60
2022/01/06 06:20:12;;;;;;;10.05;4.82;;;;;;;;;;6280526;28;20229;-59
2022/01/06 06:23:13;;;;;;;13.18;5.00;;;;;;;;;;6283681;28;20511;-61
2022/01/06 06:26:13;;;;;;;13.48;5.15;;;;;;;;;;6284522;28;20190;-59
2022/01/06 06:29:14;;;;;;;18.20;5.43;;;;;;;;;;6281101;28;20053;-61
2022/01/06 06:32:15;;;;;;;12.10;5.10;;;;;;;;;;6280247;28;20140;-59
2022/01/06 06:35:16;;;;;;;13.40;4.95;;;;;;;;;;6283418;28;20439;-60
2022/01/06 06:38:17;;;;;;;11.25;5.05;;;;;;;;;;6278844;28;20056;-60
2022/01/06 06:41:17;;;;;;;11.55;4.72;;;;;;;;;;6277850;28;20040;-60
2022/01/06 06:44:18;;;;;;;13.90;5.00;;;;;;;;;;6282757;28;20052;-60
2022/01/06 06:47:19;;;;;;;10.20;4.70;;;;;;;;;;6283978;28;20143;-60
2022/01/06 06:50:21;;;;;;;9.48;4.72;;;;;;;;;;6279993;28;20843;-57
2022/01/06 06:53:22;;;;;;;7.32;3.88;;;;;;;;;;6281134;28;20076;-58
2022/01/06 06:56:22;;;;;;;11.55;4.85;;;;;;;;;;6281978;28;20051;-60
2022/01/06 06:59:23;;;;;;;11.55;4.18;;;;;;;;;;6262376;28;20447;-60
2022/01/06 07:02:23;;;;;;;9.50;5.43;;;;;;;;;;6284420;28;20045;-59
2022/01/06 07:05:24;;;;;;;8.82;4.13;;;;;;;;;;6283350;28;20053;-59
2022/01/06 07:08:25;;;;;;;10.35;4.50;;;;;;;;;;6274218;28;20179;-60
2022/01/06 07:11:25;;;;;;;10.18;4.00;;;;;;;;;;6281154;28;20083;-59
2022/01/06 07:14:26;;;;;;;8.68;3.80;;;;;;;;;;6284235;28;20112;-58
2022/01/06 07:17:27;;;;;;;11.73;4.28;;;;;;;;;;6278766;28;20048;-60
2022/01/06 07:20:27;;;;;;;9.60;4.30;;;;;;;;;;6276803;28;20048;-60
2022/01/06 07:23:28;;;;;;;8.80;4.10;;;;;;;;;;6277455;28;20586;-60
2022/01/06 07:26:28;;;;;;;10.25;4.43;;;;;;;;;;6278179;28;20037;-60
2022/01/06 07:29:29;;;;;;;9.75;3.97;;;;;;;;;;6280289;28;20052;-60
2022/01/06 07:32:30;;;;;;;13.55;4.22;;;;;;;;;;6281994;28;20136;-60
2022/01/06 07:35:31;;;;;;;9.27;4.60;;;;;;;;;;6280769;28;20680;-59
2022/01/06 07:38:31;;;;;;;11.80;5.22;;;;;;;;;;6280396;28;20597;-60
2022/01/06 07:41:32;;;;;;;33.58;23.45;;;;;;;;;;6277990;28;20593;-62
2022/01/06 07:44:33;;;;;;;28.52;18.92;;;;;;;;;;6279675;28;20159;-61
2022/01/06 07:47:36;;;;;;;20.35;13.20;;;;;;;;;;6279350;28;20151;-60
2022/01/06 07:50:37;;;;;;;14.02;5.45;;;;;;;;;;6273900;28;20052;-60
2022/01/06 07:53:38;;;;;;;12.95;5.43;;;;;;;;;;6280153;28;20075;-61
2022/01/06 07:56:38;;;;;;;8.35;4.78;;;;;;;;;;6278074;28;20051;-60
2022/01/06 07:59:39;;;;;;;14.48;5.80;;;;;;;;;;6277839;28;21058;-60
2022/01/06 08:02:40;;;;;;;9.15;5.05;;;;;;;;;;6279816;28;20050;-59
2022/01/06 08:05:40;;;;;;;12.70;6.30;;;;;;;;;;6276650;28;20044;-59
2022/01/06 08:08:42;;;;;;;13.10;5.88;;;;;;;;;;6278307;28;20057;-61
2022/01/06 08:11:43;;;;;;;14.23;6.47;;;;;;;;;;6276797;28;20072;-59
2022/01/06 08:14:43;;;;;;;12.18;6.45;;;;;;;;;;6276056;28;20415;-58
2022/01/06 08:17:44;;;;;;;14.15;6.85;;;;;;;;;;6280520;28;20037;-60
2022/01/06 08:20:45;;;;;;;16.10;7.07;;;;;;;;;;6277494;28;20518;-60
2022/01/06 08:23:46;;;;;;;12.70;7.00;;;;;;;;;;6278692;28;20041;-59
2022/01/06 08:26:46;;;;;;;13.73;6.55;;;;;;;;;;6280357;28;20483;-61
2022/01/06 08:29:47;;;;;;;12.77;6.38;;;;;;;;;;6280642;28;20068;-61
2022/01/06 08:32:48;;;;;;;13.18;7.63;;;;;;;;;;6278652;28;20444;-61
2022/01/06 08:35:48;;;;;;;12.52;6.38;;;;;;;;;;6284053;28;20483;-60
2022/01/06 08:38:49;;;;;;;16.30;7.43;;;;;;;;;;6289683;28;20558;-60
2022/01/06 08:41:51;;;;;;;11.85;6.38;;;;;;;;;;6291235;28;20055;-62
2022/01/06 08:44:51;;;;;;;13.83;6.10;;;;;;;;;;6288859;28;20051;-60
2022/01/06 08:47:52;;;;;;;15.70;6.13;;;;;;;;;;6290593;28;20048;-61
2022/01/06 08:50:53;;;;;;;17.27;6.78;;;;;;;;;;6288650;28;20044;-61
2022/01/06 08:53:54;;;;;;;14.07;7.03;;;;;;;;;;6291327;28;20045;-58
2022/01/06 08:56:55;;;;;;;15.60;6.75;;;;;;;;;;6291806;28;20477;-58
2022/01/06 08:59:56;;;;;;;16.20;7.95;;;;;;;;;;6289441;28;20106;-55
2022/01/06 09:02:57;;;;;;;15.55;7.10;;;;;;;;;;6291707;28;20048;-62
2022/01/06 09:05:58;;;;;;;16.97;6.70;;;;;;;;;;6290981;28;20072;-66
2022/01/06 09:08:58;;;;;;;16.42;7.05;;;;;;;;;;6290677;28;20493;-61
2022/01/06 09:11:59;;;;;;;18.02;7.45;;;;;;;;;;6290836;28;20553;-68
2022/01/06 09:15:00;;;;;;;14.63;7.07;;;;;;;;;;6291003;28;20135;-62
2022/01/06 09:18:01;;;;;;;16.73;6.43;;;;;;;;;;6290588;28;20053;-64
2022/01/06 09:21:02;;;;;;;8.85;5.30;;;;;;;;;;6290783;28;20076;-73
2022/01/06 09:24:07;;;;;;;12.90;5.72;;;;;;;;;;6276122;28;20067;-63
2022/01/06 09:27:07;;;;;;;12.60;5.88;;;;;;;;;;6287847;28;20059;-62
2022/01/06 09:30:10;;;;;;;12.05;5.50;;;;;;;;;;6289635;28;20045;-63
2022/01/06 09:33:10;;;;;;;14.65;7.82;;;;;;;;;;6294182;28;20323;-64
2022/01/06 09:36:11;;;;;;;12.88;6.88;;;;;;;;;;6294968;28;20586;-62
2022/01/06 09:39:12;;;;;;;16.80;7.28;;;;;;;;;;6293802;28;20418;-63
2022/01/06 09:42:14;;;;;;;11.90;7.13;;;;;;;;;;6296848;28;20055;-62
2022/01/06 09:45:16;;;;;;;13.95;8.13;;;;;;;;;;6279915;28;20217;-63
2022/01/06 09:48:20;;;;;;;12.63;6.22;;;;;;;;;;6290806;28;20052;-65
2022/01/06 09:51:20;;;;;;;9.90;5.30;;;;;;;;;;6294960;28;20480;-62
2022/01/06 09:54:21;;;;;;;14.32;6.75;;;;;;;;;;6295756;28;20048;-61
2022/01/06 09:57:22;;;;;;;11.05;5.40;;;;;;;;;;6295347;28;20072;-61
2022/01/06 10:00:24;;;;;;;11.10;5.18;;;;;;;;;;6293918;28;20518;-62
2022/01/06 10:03:36;;;;;;;9.85;4.50;;;;;;;;;;6281387;28;20048;-60
2022/01/06 10:06:37;;;;;;;10.68;4.40;;;;;;;;;;6286763;28;20049;-61
2022/01/06 10:09:39;;;;;;;8.98;4.00;;;;;;;;;;6282364;28;20649;-61
2022/01/06 10:12:42;;;;;;;7.90;3.65;;;;;;;;;;6284773;28;20091;-60
2022/01/06 10:15:43;;;;;;;7.90;3.28;;;;;;;;;;6289220;28;20048;-61
2022/01/06 10:18:55;;;;;;;7.18;3.33;;;;;;;;;;6282687;28;20048;-62
2022/01/06 10:21:58;;;;;;;7.83;3.43;;;;;;;;;;6288402;28;20045;-61
2022/01/06 10:25:08;;;;;;;6.53;3.17;;;;;;;;;;6290962;28;20083;-65
2022/01/06 10:28:14;;;;;;;12.05;4.38;;;;;;;;;;6291462;28;20056;-60
2022/01/06 10:31:18;;;;;;;7.25;3.40;;;;;;;;;;6288627;28;20048;-60
2022/01/06 10:34:18;;;;;;;5.75;2.97;;;;;;;;;;6263715;28;20049;-61
2022/01/06 10:37:22;;;;;;;7.82;2.83;;;;;;;;;;6287690;28;20052;-61
2022/01/06 10:40:25;;;;;;;6.55;2.80;;;;;;;;;;6288075;28;20052;-61
2022/01/06 10:43:33;;;;;;;6.45;3.20;;;;;;;;;;6286842;28;20060;-61
2022/01/06 10:46:35;;;;;;;6.93;3.25;;;;;;;;;;6289500;28;20387;-60
2022/01/06 10:49:36;;;;;;;6.82;3.28;;;;;;;;;;6288853;28;20533;-60
2022/01/06 10:52:39;;;;;;;7.95;4.20;;;;;;;;;;6284575;28;20070;-60
2022/01/06 10:55:43;;;;;;;7.45;3.90;;;;;;;;;;6289604;28;20049;-61
2022/01/06 10:58:45;;;;;;;6.93;3.17;;;;;;;;;;6287943;28;20496;-61
2022/01/06 11:01:46;;;;;;;7.10;3.97;;;;;;;;;;6288728;28;20072;-61
2022/01/06 11:04:46;;;;;;;7.10;3.05;;;;;;;;;;6287881;28;20402;-61
2022/01/06 11:07:48;;;;;;;7.70;3.35;;;;;;;;;;6288178;28;20439;-61
2022/01/06 11:11:01;;;;;;;5.18;2.55;;;;;;;;;;6286309;28;20143;-60
2022/01/06 11:14:02;;;;;;;6.25;2.90;;;;;;;;;;6285566;28;20052;-60
2022/01/06 11:17:03;;;;;;;6.80;2.75;;;;;;;;;;6279973;28;20189;-59
2022/01/06 11:20:04;;;;;;;5.38;2.17;;;;;;;;;;6286717;28;20480;-60
2022/01/06 11:23:05;;;;;;;3.75;1.90;;;;;;;;;;6287111;28;20439;-61
2022/01/06 11:26:11;;;;;;;5.88;2.50;;;;;;;;;;6286018;28;20094;-61
2022/01/06 11:29:13;;;;;;;7.28;3.10;;;;;;;;;;6291068;28;20040;-61
2022/01/06 11:32:20;;;;;;;6.80;3.47;;;;;;;;;;6285605;28;20045;-61
2022/01/06 11:35:21;;;;;;;7.35;2.72;;;;;;;;;;6285453;28;20048;-61
2022/01/06 11:38:26;;;;;;;6.60;3.00;;;;;;;;;;6287024;28;20052;-61
2022/01/06 11:41:55;;;;;;;6.82;2.42;;;;;;;;;;6287178;28;20127;-60
2022/01/06 11:44:56;;;;;;;5.93;2.15;;;;;;;;;;6282196;28;21209;-60
2022/01/06 11:48:14;;;;;;;6.53;2.27;;;;;;;;;;6289686;28;20040;-61
2022/01/06 11:51:30;;;;;;;5.93;2.22;;;;;;;;;;6286192;28;20059;-60
2022/01/06 11:54:31;;;;;;;7.60;3.03;;;;;;;;;;6284129;28;20162;-61
2022/01/06 11:57:37;;;;;;;6.43;3.00;;;;;;;;;;6282664;28;20119;-60
2022/01/06 12:00:42;;;;;;;5.43;2.70;;;;;;;;;;6288689;28;20086;-61
2022/01/06 12:03:45;;;;;;;7.88;3.20;;;;;;;;;;6289053;28;20056;-61
2022/01/06 12:06:46;;;;;;;;;;;;;;;;;;6277393;28;20059;-61
2022/01/06 12:09:56;;;;;;;6.47;2.90;;;;;;;;;;6278153;28;19929;-61
2022/01/06 12:12:59;;;;;;;7.85;3.13;;;;;;;;;;6283326;28;20119;-61
2022/01/06 12:16:01;;;;;;;7.22;2.80;;;;;;;;;;6284658;28;20078;-60
2022/01/06 12:19:20;;;;;;;6.20;2.60;;;;;;;;;;6278251;28;20045;-60
2022/01/06 12:22:26;;;;;;;6.55;2.67;;;;;;;;;;6278824;28;20072;-60
2022/01/06 12:25:27;;;;;;;7.63;3.38;;;;;;;;;;6276599;28;20399;-61
2022/01/06 12:28:29;;;;;;;12.70;5.00;;;;;;;;;;6277637;28;20058;-63
2022/01/06 12:31:31;;;;;;;16.05;5.40;;;;;;;;;;6286874;28;20094;-64
2022/01/06 12:34:32;;;;;;;8.63;3.47;;;;;;;;;;6285717;28;20398;-62
2022/01/06 12:37:33;;;;;;;6.70;3.28;;;;;;;;;;6287926;28;20116;-61
2022/01/06 12:40:35;;;;;;;36.70;11.70;;;;;;;;;;6286077;28;20540;-62
2022/01/06 12:43:37;;;;;;;27.50;10.30;;;;;;;;;;6287679;28;20171;-61
2022/01/06 12:46:41;;;;;;;33.85;14.85;;;;;;;;;;6287735;28;20048;-61
2022/01/06 12:49:42;;;;;;;11.73;4.93;;;;;;;;;;6279756;28;20047;-62
2022/01/06 12:52:47;;;;;;;6.47;2.95;;;;;;;;;;6282273;28;20041;-61
2022/01/06 12:55:47;;;;;;;5.00;2.40;;;;;;;;;;6284512;28;20558;-61
2022/01/06 12:58:48;;;;;;;5.13;2.40;;;;;;;;;;6283371;28;20053;-62
2022/01/06 13:01:57;;;;;;;9.23;2.80;;;;;;;;;;6284376;28;20515;-61
2022/01/06 13:05:00;;;;;;;6.55;2.33;;;;;;;;;;6287554;28;20145;-61
2022/01/06 13:08:02;;;;;;;7.43;2.97;;;;;;;;;;6283664;28;20479;-62
2022/01/06 13:11:06;;;;;;;4.60;2.13;;;;;;;;;;6285314;28;20479;-61
2022/01/06 13:14:08;;;;;;;8.20;2.85;;;;;;;;;;6287167;28;20135;-62
2022/01/06 13:17:26;;;;;;;4.72;2.55;;;;;;;;;;6287986;28;20073;-61
2022/01/06 13:20:27;;;;;;;6.30;2.55;;;;;;;;;;6280116;28;20045;-61
2022/01/06 13:26:52;;;;;;;5.82;2.28;;;;;;;;;;6281640;28;20044;-61
2022/01/06 13:29:53;;;;;;;5.53;1.90;;;;;;;;;;6285208;28;20083;-61
2022/01/06 13:32:57;;;;;;;5.22;2.17;;;;;;;;;;6280264;28;20048;-61
2022/01/06 13:36:00;;;;;;;5.03;2.00;;;;;;;;;;6284356;28;20060;-62
2022/01/06 13:39:09;;;;;;;4.60;2.13;;;;;;;;;;6280227;28;20561;-74
2022/01/06 13:42:42;;;;;;;6.18;2.05;;;;;;;;;;6259888;28;20081;-62
2022/01/06 13:45:47;;;;;;;5.95;2.15;;;;;;;;;;6283042;28;20044;-62
2022/01/06 13:52:39;;;;;;;6.50;2.33;;;;;;;;;;6266088;28;20045;-62
2022/01/06 13:55:40;;;;;;;7.45;2.50;;;;;;;;;;6278908;28;20060;-62
2022/01/06 13:58:49;;;;;;;6.18;2.83;;;;;;;;;;6277893;28;20052;-61
2022/01/06 14:01:51;;;;;;;8.35;2.50;;;;;;;;;;6285409;28;20124;-61
2022/01/06 14:04:52;;;;;;;7.20;2.47;;;;;;;;;;6284721;28;20083;-61
2022/01/06 14:07:53;;;;;;;6.25;2.55;;;;;;;;;;6281642;28;20057;-61
2022/01/06 14:10:54;;;;;;;6.20;1.92;;;;;;;;;;6278051;28;20559;-62
2022/01/06 14:13:55;;;;;;;4.93;2.13;;;;;;;;;;6281223;28;20089;-62
2022/01/06 14:16:56;;;;;;;7.97;2.17;;;;;;;;;;6280148;28;20591;-61
2022/01/06 14:19:58;;;;;;;6.65;2.30;;;;;;;;;;6279425;28;20048;-62
2022/01/06 14:22:58;;;;;;;6.47;2.25;;;;;;;;;;6275032;28;20068;-61
2022/01/06 14:26:00;;;;;;;6.80;2.70;;;;;;;;;;6274253;28;20083;-62
2022/01/06 14:29:00;;;;;;;7.60;2.90;;;;;;;;;;6281780;28;20171;-61
2022/01/06 14:32:01;;;;;;;5.65;2.33;;;;;;;;;;6282135;28;20389;-62
2022/01/06 14:35:02;;;;;;;8.35;2.70;;;;;;;;;;6284538;28;20117;-63
2022/01/06 14:38:05;;;;;;;7.63;2.65;;;;;;;;;;6281754;28;20053;-62
2022/01/06 14:41:07;;;;;;;9.50;3.17;;;;;;;;;;6285417;28;20131;-64
2022/01/06 14:44:07;;;;;;;7.18;2.58;;;;;;;;;;6287993;28;20406;-63
2022/01/06 14:47:08;;;;;;;10.90;2.92;;;;;;;;;;6281178;28;20151;-63
2022/01/06 14:50:13;;;;;;;9.90;2.67;;;;;;;;;;6291254;28;20041;-63
2022/01/06 14:53:13;;;;;;;8.98;2.63;;;;;;;;;;6285791;28;20418;-64
2022/01/06 14:56:15;;;;;;;9.43;2.55;;;;;;;;;;6284672;28;20055;-61
2022/01/06 15:29:53;;;;;;;9.25;2.97;;;;;;;;;;6261108;28;20503;-60
2022/01/06 15:32:53;;;;;;;10.52;3.33;;;;;;;;;;6270381;28;20071;-62
2022/01/06 15:35:54;;;;;;;9.10;3.35;;;;;;;;;;6272641;28;20048;-62
2022/01/06 15:38:57;;;;;;;12.65;4.25;;;;;;;;;;6267388;28;20484;-62
2022/01/06 15:41:58;;;;;;;7.28;2.65;;;;;;;;;;6264548;28;20492;-62
2022/01/06 15:44:59;;;;;;;6.63;2.67;;;;;;;;;;6273139;28;20044;-62
2022/01/06 15:48:00;;;;;;;6.63;2.03;;;;;;;;;;6273514;28;20648;-61
2022/01/06 15:51:01;;;;;;;10.18;2.65;;;;;;;;;;6270244;28;20056;-61
2022/01/06 15:54:03;;;;;;;6.53;2.65;;;;;;;;;;6274078;28;20053;-62
2022/01/06 15:57:04;;;;;;;6.85;3.05;;;;;;;;;;6275725;28;20040;-62
2022/01/06 16:06:43;;;;;;;7.88;2.80;;;;;;;;;;6271238;28;20141;-61
2022/01/06 16:09:44;;;;;;;9.45;3.35;;;;;;;;;;6268681;28;20500;-61
2022/01/06 16:12:45;;;;;;;7.25;2.92;;;;;;;;;;6266949;28;20048;-61
2022/01/06 16:15:46;;;;;;;9.90;3.92;;;;;;;;;;6273894;28;20191;-62
2022/01/06 16:18:46;;;;;;;9.70;3.85;;;;;;;;;;6263089;28;20049;-62
2022/01/06 16:21:47;;;;;;;9.55;3.30;;;;;;;;;;6266848;28;20140;-60
2022/01/06 16:24:48;;;;;;;11.10;4.45;;;;;;;;;;6263468;28;20110;-62
2022/01/06 16:27:50;;;;;;;12.45;4.50;;;;;;;;;;6266824;28;20518;-61
2022/01/06 16:30:50;;;;;;;9.17;4.40;;;;;;;;;;6262989;28;20507;-61
2022/01/06 16:33:51;;;;;;;11.43;4.53;;;;;;;;;;6262285;28;20059;-61
2022/01/06 16:36:51;;;;;;;14.63;5.00;;;;;;;;;;6261217;28;20041;-59
2022/01/06 16:39:52;;;;;;;9.32;4.18;;;;;;;;;;6261518;28;20045;-59
2022/01/06 16:42:53;;;;;;;11.88;5.40;;;;;;;;;;6262438;28;20140;-61
2022/01/06 16:45:55;;;;;;;12.10;5.13;;;;;;;;;;6261805;28;20123;-61
2022/01/06 16:48:56;;;;;;;14.65;5.80;;;;;;;;;;6265547;28;21045;-61
2022/01/06 16:51:57;;;;;;;14.85;5.85;;;;;;;;;;6258051;28;20093;-61
2022/01/06 16:54:57;;;;;;;14.07;6.05;;;;;;;;;;6261259;28;20048;-61
2022/01/06 16:57:58;;;;;;;11.27;4.75;;;;;;;;;;6258809;28;20083;-61
2022/01/06 17:00:58;;;;;;;12.23;5.00;;;;;;;;;;6262206;28;20044;-59
2022/01/06 17:04:02;;;;;;;13.23;4.95;;;;;;;;;;6259567;28;20049;-61
2022/01/06 17:07:03;;;;;;;12.75;4.78;;;;;;;;;;6263339;28;20056;-61
2022/01/06 17:10:05;;;;;;;14.50;5.28;;;;;;;;;;6257535;28;20045;-60
2022/01/06 17:13:06;;;;;;;13.32;5.68;;;;;;;;;;6255488;28;20044;-60
2022/01/06 17:16:07;;;;;;;14.38;5.90;;;;;;;;;;6259248;28;20146;-60
2022/01/06 17:19:07;;;;;;;14.60;5.47;;;;;;;;;;6266718;28;20040;-61
2022/01/06 17:22:08;;;;;;;16.20;7.10;;;;;;;;;;6255461;28;20070;-60
2022/01/06 17:25:09;;;;;;;12.48;5.63;;;;;;;;;;6264815;28;20455;-60
2022/01/06 17:28:11;;;;;;;14.30;6.05;;;;;;;;;;6256773;28;20056;-59
2022/01/06 17:31:12;;;;;;;12.87;5.83;;;;;;;;;;6264266;28;20064;-59
2022/01/06 17:34:13;;;;;;;14.88;5.65;;;;;;;;;;6261872;28;20125;-59
2022/01/06 17:37:14;;;;;;;13.73;6.45;;;;;;;;;;6259924;28;20045;-59
2022/01/06 17:40:16;;;;;;;16.70;6.65;;;;;;;;;;6257907;28;20068;-60
2022/01/06 17:43:18;;;;;;;19.48;6.80;;;;;;;;;;6262531;28;20055;-60
2022/01/06 17:46:19;;;;;;;17.95;6.88;;;;;;;;;;6257345;28;20057;-60
2022/01/06 17:49:19;;;;;;;16.80;6.57;;;;;;;;;;6264879;28;20044;-60
2022/01/06 17:52:20;;;;;;;14.40;6.35;;;;;;;;;;6262915;28;20163;-60
2022/01/06 17:55:21;;;;;;;20.20;7.38;;;;;;;;;;6269451;28;20045;-60
2022/01/06 17:58:23;;;;;;;17.13;6.65;;;;;;;;;;6271372;28;20052;-60
2022/01/06 18:01:23;;;;;;;14.53;6.30;;;;;;;;;;6265824;28;20043;-60
2022/01/06 18:04:24;;;;;;;15.02;6.57;;;;;;;;;;6269512;28;20049;-60
2022/01/06 18:07:37;;;;;;;15.80;6.18;;;;;;;;;;6263882;28;20049;-60
2022/01/06 18:14:09;;;;;;;13.23;6.03;;;;;;;;;;6269474;28;20044;-60
2022/01/06 18:17:10;;;;;;;15.07;5.63;;;;;;;;;;6262366;28;20061;-60
2022/01/06 18:20:11;;;;;;;15.25;5.80;;;;;;;;;;6263539;28;20801;-60
2022/01/06 18:23:12;;;;;;;12.95;5.18;;;;;;;;;;6263833;28;20512;-59
2022/01/06 18:26:12;;;;;;;20.13;5.60;;;;;;;;;;6262368;28;20147;-59
2022/01/06 18:29:13;;;;;;;13.77;5.43;;;;;;;;;;6266980;28;20160;-60
2022/01/06 18:32:14;;;;;;;14.20;5.50;;;;;;;;;;6261723;28;20056;-61
2022/01/06 18:35:14;;;;;;;14.90;5.93;;;;;;;;;;6265033;28;20153;-60
2022/01/06 18:38:15;;;;;;;15.00;5.10;;;;;;;;;;6265611;28;20066;-66
2022/01/06 18:41:21;;;;;;;17.05;5.35;;;;;;;;;;6260668;28;20094;-63
2022/01/06 18:44:22;;;;;;;13.70;5.68;;;;;;;;;;6265431;28;20131;-61
2022/01/06 18:47:23;;;;;;;13.57;5.35;;;;;;;;;;6263571;28;20049;-61
2022/01/06 18:50:23;;;;;;;12.27;4.90;;;;;;;;;;6259680;28;20056;-61
2022/01/06 18:53:25;;;;;;;14.82;5.40;;;;;;;;;;6263235;28;20044;-61
2022/01/06 18:56:26;;;;;;;10.30;4.07;;;;;;;;;;6267787;28;20403;-61